»·PEaware :: BISON14 KEND-KEND

BISON14 :: KEND-KEND

FLIGHT INFORMATION

Flight Status: Arrived
Operator: Unknown
More flights by this operator :: More flights under this callsign
Pilot: Jordan C. (21690)
Aircraft: BEECH AIRCRAFT T-6A TEXAN
(TEX2)
More flights by this aircraft type
Origin: KEND Vance AFB
United States
Destination: KEND Vance AFB
United States
More flights between these airports :: More routes between these airports
Route: +DF
File this flight plan on PilotEdge
Remarks:
Altitude:
(Current/Filed)
0ft
Speed:
(Current/Filed)
0kts
Departed: 26-Mar-20 07:23 AM
Arrived: 26-Mar-20 08:17 AM
Distance/Time
Traveled:
0nm/0:54
Distance/Time
To Go:
Arrived

Flight Plot

Page will automatically refresh every two minutes.

Flight plan parsing failed; only flown route is shown


Map Options




Map Legend


Flown Route
Filed Route
Departure Airport
Arrival Airport
Navaid (VOR, NDB)
Fix

Horizontal Profiles

Position Reports

Time Latitude Longitude Heading Altitude Ground
Speed
26-Mar-20 07:14 36.346928 -97.910019 198 1279ft 0kts
26-Mar-20 07:15 36.346928 -97.910019 198 1279ft 0kts
26-Mar-20 07:17 36.346928 -97.910019 198 1279ft 0kts
26-Mar-20 07:18 36.346928 -97.910019 198 1279ft 0kts
26-Mar-20 07:19 36.346928 -97.910019 198 1279ft 0kts
26-Mar-20 07:20 36.346928 -97.910019 198 1279ft 0kts
26-Mar-20 07:21 36.346928 -97.910019 198 1279ft 0kts
26-Mar-20 07:22 36.346833 -97.910903 250 1279ft 2kts
26-Mar-20 07:23 36.318719 -97.911509 180 1718ft 189kts
26-Mar-20 07:24 36.263059 -97.904428 170 4150ft 203kts
26-Mar-20 07:25 36.240522 -97.854425 42 4964ft 263kts
26-Mar-20 07:26 36.305238 -97.863547 331 5145ft 239kts
26-Mar-20 07:27 36.365452 -97.903542 328 4944ft 248kts
26-Mar-20 07:28 36.432696 -97.906639 6 4976ft 255kts
26-Mar-20 07:29 36.502610 -97.897441 3 4977ft 251kts
26-Mar-20 07:30 36.571894 -97.889453 0 5049ft 252kts
26-Mar-20 07:31 36.641955 -97.883065 1 4999ft 254kts
26-Mar-20 07:32 36.713992 -97.879356 359 3002ft 257kts
26-Mar-20 07:33 36.738524 -97.938378 269 2766ft 240kts
26-Mar-20 07:34 36.739261 -98.019977 269 2373ft 221kts
26-Mar-20 07:34 36.768574 -98.071312 330 2255ft 222kts
26-Mar-20 07:36 36.826164 -98.089402 261 2363ft 186kts
26-Mar-20 07:37 36.805564 -98.126309 179 1741ft 116kts
26-Mar-20 07:38 36.774917 -98.122315 179 1836ft 112kts
26-Mar-20 07:38 36.748712 -98.123009 182 1389ft 110kts
26-Mar-20 07:39 36.715476 -98.119074 123 2439ft 155kts
26-Mar-20 07:40 36.750786 -98.108740 0 2471ft 144kts
26-Mar-20 07:41 36.745271 -98.123201 181 1248ft 106kts
26-Mar-20 07:43 36.709846 -98.104028 94 1794ft 224kts
26-Mar-20 07:43 36.716377 -98.042674 81 4286ft 221kts
26-Mar-20 07:44 36.727456 -97.963105 79 5427ft 249kts
26-Mar-20 07:45 36.765527 -97.915102 344 5358ft 237kts
26-Mar-20 07:46 36.829310 -97.941756 342 5626ft 246kts
26-Mar-20 07:47 36.893905 -97.957710 351 7379ft 229kts
26-Mar-20 07:48 36.958316 -97.957604 6 9000ft 262kts
26-Mar-20 07:49 36.979031 -97.951193 180 8155ft 247kts
26-Mar-20 07:50 36.911887 -97.952612 189 9737ft 204kts
26-Mar-20 07:51 36.868520 -97.967635 188 9859ft 129kts
26-Mar-20 07:52 36.878776 -97.935258 51 9816ft 142kts
26-Mar-20 07:53 36.905749 -97.940111 329 10130ft 108kts
26-Mar-20 07:54 36.925333 -97.962034 342 9951ft 100kts
26-Mar-20 07:55 36.961476 -97.974139 349 10514ft 185kts
26-Mar-20 07:56 37.002187 -97.970921 17 10300ft 211kts
26-Mar-20 07:57 37.005600 -97.956034 180 8264ft 246kts
26-Mar-20 07:58 36.975764 -97.955489 3 9776ft 158kts
26-Mar-20 07:59 37.032245 -97.954840 302 10032ft 243kts
26-Mar-20 08:00 36.963503 -97.976407 190 9199ft 256kts
26-Mar-20 08:01 36.902695 -97.991796 187 8587ft 219kts
26-Mar-20 08:02 36.890879 -97.971843 311 7159ft 191kts
26-Mar-20 08:03 36.852485 -97.981289 172 7012ft 202kts
26-Mar-20 08:04 36.789081 -97.966762 126 6897ft 255kts
26-Mar-20 08:05 36.746701 -97.894486 128 6982ft 264kts
26-Mar-20 08:06 36.702558 -97.820984 130 7026ft 264kts
26-Mar-20 08:07 36.654898 -97.751757 133 7134ft 261kts
26-Mar-20 08:08 36.596309 -97.754678 220 7141ft 258kts
26-Mar-20 08:09 36.538848 -97.809450 208 5406ft 277kts
26-Mar-20 08:10 36.489420 -97.860193 255 2448ft 210kts
26-Mar-20 08:11 36.452008 -97.907742 182 2205ft 208kts
26-Mar-20 08:12 36.393962 -97.908203 185 2350ft 213kts
26-Mar-20 08:13 36.336673 -97.906153 124 2361ft 204kts
26-Mar-20 08:14 36.361758 -97.906932 218 1666ft 122kts
26-Mar-20 08:15 36.337453 -97.910957 180 1288ft 47kts
26-Mar-20 08:16 36.334719 -97.909111 337 1293ft 10kts

Navigation Log

Ident Type
Flight plan parsing failed, navigation log unavailable